Time;durP1;ratioP1;P1;durP2;ratioP2;P2;SDS_P1;SDS_P2;PMS_P1;PMS_P2;Temp;Humidity;BMP_temperature;BMP_pressure;BME280_temperature;BME280_humidity;BME280_pressure;Samples;Min_cycle;Max_cycle;Signal;HPM_P1;HPM_P2
2022/10/22 00:01:07;;;;;;;11.45;10.07;;;12.80;99.90;;;;;;4864618;28;89926;-31
2022/10/22 00:03:32;;;;;;;10.27;8.80;;;12.80;99.90;;;;;;4864350;28;89465;-30
2022/10/22 00:05:58;;;;;;;12.32;10.52;;;12.80;99.90;;;;;;4864565;28;92398;-32
2022/10/22 00:08:24;;;;;;;12.20;10.05;;;12.80;99.90;;;;;;4864554;28;89922;-28
2022/10/22 00:10:49;;;;;;;10.77;9.55;;;12.80;99.90;;;;;;4864186;28;89429;-29
2022/10/22 00:13:15;;;;;;;14.55;10.30;;;12.80;99.90;;;;;;4864412;28;88144;-28
2022/10/22 00:15:41;;;;;;;13.63;9.52;;;12.70;99.90;;;;;;4864309;28;89437;-28
2022/10/22 00:18:06;;;;;;;11.77;10.00;;;12.70;99.90;;;;;;4864488;28;89639;-28
2022/10/22 00:20:32;;;;;;;11.85;9.68;;;12.70;99.90;;;;;;4865011;28;89270;-27
2022/10/22 00:22:58;;;;;;;9.00;8.10;;;12.60;99.90;;;;;;4865082;28;88977;-28
2022/10/22 00:25:23;;;;;;;12.05;9.43;;;12.60;99.90;;;;;;4864468;28;90014;-28
2022/10/22 00:27:49;;;;;;;13.15;10.52;;;12.60;99.90;;;;;;4864238;28;90042;-28
2022/10/22 00:30:14;;;;;;;14.50;8.73;;;12.50;99.90;;;;;;4863592;28;89542;-28
2022/10/22 00:32:40;;;;;;;10.90;9.80;;;12.50;99.90;;;;;;4864786;28;89850;-30
2022/10/22 00:35:06;;;;;;;11.82;10.13;;;12.50;99.90;;;;;;4864165;28;90482;-28
2022/10/22 00:37:32;;;;;;;11.40;10.15;;;12.50;99.90;;;;;;4863013;28;89910;-31
2022/10/22 00:39:57;;;;;;;10.40;9.35;;;12.60;99.90;;;;;;4863673;28;89477;-29
2022/10/22 00:42:25;;;;;;;11.07;8.88;;;12.60;99.90;;;;;;4864249;28;88849;-32
2022/10/22 00:45:09;;;;;;;11.75;10.55;;;12.50;99.90;;;;;;4864654;28;90503;-32
2022/10/22 00:47:58;;;;;;;10.90;8.80;;;12.60;99.90;;;;;;4863051;28;92090;-27
2022/10/22 00:50:30;;;;;;;11.38;10.27;;;12.50;99.90;;;;;;4863955;28;89617;-29
2022/10/22 00:52:57;;;;;;;12.90;11.57;;;12.50;99.90;;;;;;4863467;28;88846;-28
2022/10/22 00:55:24;;;;;;;12.73;9.70;;;12.60;99.90;;;;;;4863880;28;90232;-29
2022/10/22 00:57:51;;;;;;;12.63;9.23;;;12.50;99.90;;;;;;4863542;28;89274;-28
2022/10/22 01:00:17;;;;;;;13.52;10.02;;;12.50;99.90;;;;;;4863604;28;89643;-32
2022/10/22 01:02:42;;;;;;;10.30;9.10;;;12.50;99.90;;;;;;4863161;28;89170;-29
2022/10/22 01:05:09;;;;;;;11.43;9.35;;;12.50;99.90;;;;;;4863388;28;90053;-31
2022/10/22 01:07:45;;;;;;;13.40;10.27;;;12.50;99.90;;;;;;4864632;28;89831;-30
2022/10/22 01:10:20;;;;;;;10.00;9.02;;;12.60;99.90;;;;;;4863293;28;89899;-27
2022/10/22 01:13:09;;;;;;;13.57;9.93;;;12.60;99.90;;;;;;4863706;28;88363;-29
2022/10/22 01:16:06;;;;;;;16.35;10.45;;;12.60;99.90;;;;;;4841970;28;89601;-31
2022/10/22 01:18:48;;;;;;;10.30;9.20;;;12.60;99.90;;;;;;4861864;28;89589;-32
2022/10/22 01:21:32;;;;;;;12.88;10.43;;;12.60;99.90;;;;;;4863627;28;90467;-28
2022/10/22 01:24:16;;;;;;;11.32;8.90;;;12.50;99.90;;;;;;4839630;28;88064;-31
2022/10/22 01:26:56;;;;;;;13.25;9.20;;;12.50;99.90;;;;;;4863110;28;90600;-30
2022/10/22 01:29:37;;;;;;;12.82;9.73;;;12.50;99.90;;;;;;4863830;28;91291;-28
2022/10/22 01:32:14;;;;;;;12.93;10.30;;;12.50;99.90;;;;;;4863632;28;89388;-30
2022/10/22 01:34:43;;;;;;;14.05;9.60;;;12.50;99.90;;;;;;4862581;28;90016;-32
2022/10/22 01:37:12;;;;;;;15.45;10.13;;;12.60;99.90;;;;;;4863558;28;89216;-31
2022/10/22 01:39:40;;;;;;;10.50;9.50;;;12.50;99.90;;;;;;4863167;28;89586;-27
2022/10/22 01:42:06;;;;;;;10.80;9.65;;;12.50;99.90;;;;;;4863228;28;90469;-29
2022/10/22 01:44:36;;;;;;;12.95;9.77;;;12.60;99.90;;;;;;4863540;28;91145;-31
2022/10/22 01:47:06;;;;;;;12.23;9.00;;;12.60;99.90;;;;;;4863227;28;90298;-29
2022/10/22 01:50:04;;;;;;;12.80;9.05;;;12.60;99.90;;;;;;4863166;28;89507;-32
2022/10/22 01:52:48;;;;;;;13.98;9.52;;;12.60;99.90;;;;;;4845094;28;89760;-30
2022/10/22 01:55:22;;;;;;;10.25;8.63;;;12.60;99.90;;;;;;4864198;28;89965;-30
2022/10/22 01:57:56;;;;;;;11.10;9.70;;;12.60;99.90;;;;;;4863247;28;90319;-32
2022/10/22 02:00:22;;;;;;;12.40;9.40;;;12.60;99.90;;;;;;4862836;28;90580;-28
2022/10/22 02:03:12;;;;;;;14.60;8.57;;;12.70;99.90;;;;;;4862900;28;89474;-30
2022/10/22 02:06:00;;;;;;;16.42;10.18;;;12.60;99.90;;;;;;4863035;28;88565;-31
2022/10/22 02:08:32;;;;;;;13.63;8.93;;;12.60;99.90;;;;;;4862282;28;90004;-27
2022/10/22 02:10:58;;;;;;;23.33;11.00;;;12.60;99.90;;;;;;4862786;28;91101;-29
2022/10/22 02:13:28;;;;;;;14.88;8.50;;;12.60;99.90;;;;;;4862377;28;91199;-30
2022/10/22 02:15:56;;;;;;;20.10;8.60;;;12.60;99.90;;;;;;4866310;28;87684;-29
2022/10/22 02:18:25;;;;;;;9.85;8.68;;;12.60;99.90;;;;;;4866329;28;89999;-32
2022/10/22 02:20:51;;;;;;;11.23;8.60;;;12.60;99.90;;;;;;4866132;28;90761;-30
2022/10/22 02:23:16;;;;;;;14.25;8.93;;;12.60;99.90;;;;;;4866311;28;89612;-28
2022/10/22 02:25:50;;;;;;;9.38;8.13;;;12.60;99.90;;;;;;4866500;28;89521;-31
2022/10/22 02:28:23;;;;;;;11.68;8.95;;;12.60;99.90;;;;;;4866183;28;90304;-30
2022/10/22 02:30:55;;;;;;;11.48;7.88;;;12.60;99.90;;;;;;4858806;28;89951;-30
2022/10/22 02:33:35;;;;;;;12.85;8.93;;;12.60;99.90;;;;;;4860166;28;90043;-29
2022/10/22 02:36:03;;;;;;;13.80;10.70;;;12.60;99.90;;;;;;4865284;28;88846;-29
2022/10/22 02:38:30;;;;;;;9.93;8.40;;;12.60;99.90;;;;;;4865740;28;90426;-32
2022/10/22 02:40:56;;;;;;;10.10;8.30;;;12.60;99.90;;;;;;4865844;28;90037;-32
2022/10/22 02:43:23;;;;;;;13.05;10.07;;;12.60;99.90;;;;;;4866280;28;91428;-28
2022/10/22 02:45:49;;;;;;;9.07;8.18;;;12.50;99.90;;;;;;4865255;28;89474;-31
2022/10/22 02:48:14;;;;;;;13.52;9.05;;;12.50;99.90;;;;;;4866347;28;90473;-31
2022/10/22 02:50:40;;;;;;;8.45;7.70;;;12.50;99.90;;;;;;4865625;28;89922;-29
2022/10/22 02:53:06;;;;;;;9.57;8.52;;;12.50;99.90;;;;;;4866072;28;89994;-30
2022/10/22 02:55:31;;;;;;;9.27;8.30;;;12.50;99.90;;;;;;4865774;28;88535;-31
2022/10/22 02:57:57;;;;;;;8.50;7.53;;;12.50;99.90;;;;;;4865464;28;90323;-29
2022/10/22 03:00:22;;;;;;;12.55;9.18;;;12.50;99.90;;;;;;4857410;28;91525;-26
2022/10/22 03:02:48;;;;;;;10.50;8.30;;;12.50;99.90;;;;;;4846314;28;90429;-28
2022/10/22 03:05:14;;;;;;;11.60;9.73;;;12.60;99.90;;;;;;4846962;29;88449;-30
2022/10/22 03:07:39;;;;;;;9.32;8.48;;;12.50;99.90;;;;;;4846272;28;90311;-32
2022/10/22 03:10:06;;;;;;;12.43;9.55;;;12.60;99.90;;;;;;4846459;28;89633;-29
2022/10/22 03:12:31;;;;;;;14.20;10.18;;;12.50;99.90;;;;;;4846960;29;89497;-31
2022/10/22 03:14:57;;;;;;;11.77;9.88;;;12.50;99.90;;;;;;4846448;29;89192;-31
2022/10/22 03:17:23;;;;;;;12.95;9.13;;;12.60;99.90;;;;;;4846811;28;90401;-28
2022/10/22 03:19:48;;;;;;;10.20;9.18;;;12.60;99.90;;;;;;4846035;29;89539;-29
2022/10/22 03:22:26;;;;;;;15.18;10.73;;;12.60;99.90;;;;;;4846540;29;89542;-31
2022/10/22 03:24:54;;;;;;;13.77;8.75;;;12.50;99.90;;;;;;4845700;28;90178;-31
2022/10/22 03:27:21;;;;;;;10.68;9.57;;;12.60;99.90;;;;;;4846534;28;90355;-28
2022/10/22 03:29:49;;;;;;;10.55;9.43;;;12.60;99.90;;;;;;4846342;29;89702;-30
2022/10/22 03:32:14;;;;;;;11.80;10.02;;;12.50;99.90;;;;;;4845890;28;89383;-29
2022/10/22 03:34:40;;;;;;;15.00;9.57;;;12.60;99.90;;;;;;4845436;28;88076;-29
2022/10/22 03:37:05;;;;;;;17.30;10.20;;;12.50;99.90;;;;;;4846256;28;90265;-27
2022/10/22 03:39:33;;;;;;;12.43;8.63;;;12.50;99.90;;;;;;4846299;28;90017;-29
2022/10/22 03:41:59;;;;;;;17.00;9.85;;;12.50;99.90;;;;;;4846316;28;89958;-30
2022/10/22 03:44:26;;;;;;;12.20;9.75;;;12.50;99.90;;;;;;4845839;28;88252;-30
2022/10/22 03:46:51;;;;;;;12.60;9.52;;;12.50;99.90;;;;;;4845710;29;89265;-30
2022/10/22 03:49:17;;;;;;;13.43;10.27;;;12.50;99.90;;;;;;4845772;29;91342;-29
2022/10/22 03:51:43;;;;;;;14.70;10.50;;;12.50;99.90;;;;;;4845009;28;91633;-28
2022/10/22 03:54:09;;;;;;;11.52;9.13;;;12.50;99.90;;;;;;4845991;29;89783;-27
2022/10/22 03:56:34;;;;;;;10.93;9.57;;;12.50;99.90;;;;;;4845957;29;89994;-29
2022/10/22 03:59:00;;;;;;;15.25;11.07;;;12.50;99.90;;;;;;4845877;29;90332;-29
2022/10/22 04:01:27;;;;;;;14.02;9.90;;;12.50;99.90;;;;;;4845140;28;90161;-28
2022/10/22 04:03:54;;;;;;;11.50;10.05;;;12.50;99.90;;;;;;4845501;29;89137;-30
2022/10/22 04:06:19;;;;;;;13.90;11.02;;;12.50;99.90;;;;;;4845738;29;90403;-30
2022/10/22 04:08:45;;;;;;;18.13;10.32;;;12.50;99.90;;;;;;4844947;28;90025;-29
2022/10/22 04:11:12;;;;;;;11.13;9.07;;;12.50;99.90;;;;;;4845503;28;89799;-29
2022/10/22 04:13:38;;;;;;;10.18;8.63;;;12.60;99.90;;;;;;4845983;29;88936;-30
2022/10/22 04:16:13;;;;;;;12.27;8.88;;;12.60;99.90;;;;;;4845405;28;90232;-27
2022/10/22 04:18:39;;;;;;;10.52;9.43;;;12.60;99.90;;;;;;4846000;29;89248;-28
2022/10/22 04:21:07;;;;;;;10.55;9.43;;;12.60;99.90;;;;;;4846053;28;89511;-30
2022/10/22 04:23:33;;;;;;;12.77;10.90;;;12.60;99.90;;;;;;4845493;29;88268;-31
2022/10/22 04:26:00;;;;;;;10.73;9.80;;;12.60;99.90;;;;;;4844775;28;90322;-28
2022/10/22 04:28:26;;;;;;;13.00;11.50;;;12.60;99.90;;;;;;4845675;28;89822;-29
2022/10/22 04:30:52;;;;;;;10.30;9.25;;;12.60;99.90;;;;;;4844011;28;90842;-28
2022/10/22 04:33:18;;;;;;;12.40;10.77;;;12.60;99.90;;;;;;4863827;23;89169;-30
2022/10/22 04:35:43;;;;;;;12.50;10.60;;;12.60;99.90;;;;;;4825537;29;90272;-31
2022/10/22 04:38:09;;;;;;;13.02;10.88;;;12.60;99.90;;;;;;4825269;29;91778;-31
2022/10/22 04:40:34;;;;;;;13.80;9.65;;;12.60;99.90;;;;;;4826355;29;89294;-29
2022/10/22 04:43:00;;;;;;;10.88;8.77;;;12.60;99.90;;;;;;4826375;29;90747;-30
2022/10/22 04:45:26;;;;;;;12.90;11.45;;;12.60;99.90;;;;;;4827221;29;90192;-28
2022/10/22 04:47:51;;;;;;;17.60;10.43;;;12.50;99.90;;;;;;4825527;29;90098;-29
2022/10/22 04:50:17;;;;;;;13.63;11.18;;;12.50;99.90;;;;;;4826558;29;89577;-31
2022/10/22 04:52:42;;;;;;;23.77;9.32;;;12.50;99.90;;;;;;4825695;29;88827;-31
2022/10/22 04:55:08;;;;;;;12.95;10.07;;;12.50;99.90;;;;;;4835174;29;90389;-32
2022/10/22 04:57:34;;;;;;;14.00;10.15;;;12.50;99.90;;;;;;4826791;29;90513;-29
2022/10/22 04:59:59;;;;;;;15.60;9.77;;;12.50;99.90;;;;;;4824537;29;89992;-28
2022/10/22 05:02:25;;;;;;;15.07;10.13;;;12.50;99.90;;;;;;4826295;29;90323;-27
2022/10/22 05:04:51;;;;;;;14.30;10.38;;;12.50;99.90;;;;;;4824717;29;90013;-31
2022/10/22 05:07:16;;;;;;;19.20;9.68;;;12.50;99.90;;;;;;4825793;29;89711;-28
2022/10/22 05:09:42;;;;;;;12.98;10.80;;;12.50;99.90;;;;;;4826112;29;89521;-29
2022/10/22 05:12:07;;;;;;;25.23;12.23;;;12.50;99.90;;;;;;4808466;29;88905;-30
2022/10/22 05:14:33;;;;;;;14.68;10.13;;;12.50;99.90;;;;;;4825642;29;91308;-28
2022/10/22 05:16:59;;;;;;;10.23;9.20;;;12.60;99.90;;;;;;4824988;29;89932;-29
2022/10/22 05:19:26;;;;;;;12.20;10.93;;;12.60;99.90;;;;;;4828632;29;89019;-32
2022/10/22 05:21:54;;;;;;;14.63;10.85;;;12.60;99.90;;;;;;4815258;29;88772;-32
2022/10/22 05:24:21;;;;;;;14.43;9.45;;;12.60;99.90;;;;;;4825193;29;90220;-31
2022/10/22 05:26:50;;;;;;;18.85;11.60;;;12.60;99.90;;;;;;4824968;29;91032;-32
2022/10/22 05:29:16;;;;;;;11.85;10.65;;;12.60;99.90;;;;;;4825519;29;90735;-31
2022/10/22 05:31:41;;;;;;;11.27;9.30;;;12.60;99.90;;;;;;4825503;29;89063;-31
2022/10/22 05:34:07;;;;;;;13.65;10.70;;;12.70;99.90;;;;;;4825985;29;90473;-30
2022/10/22 05:36:32;;;;;;;12.35;10.07;;;12.60;99.90;;;;;;4825120;29;89841;-30
2022/10/22 05:38:58;;;;;;;19.17;9.93;;;12.60;99.90;;;;;;4824452;29;88851;-28
2022/10/22 05:41:25;;;;;;;15.75;9.88;;;12.60;99.90;;;;;;4826815;29;89650;-31
2022/10/22 05:43:57;;;;;;;12.98;9.15;;;12.60;99.90;;;;;;4825804;29;89642;-30
2022/10/22 05:46:25;;;;;;;13.52;9.75;;;12.60;99.90;;;;;;4826665;29;89380;-31
2022/10/22 05:48:52;;;;;;;13.17;10.07;;;12.60;99.90;;;;;;4824935;29;89295;-27
2022/10/22 05:51:19;;;;;;;11.38;10.25;;;12.60;99.90;;;;;;4824915;29;90645;-28
2022/10/22 05:53:45;;;;;;;11.00;9.30;;;12.60;99.90;;;;;;4825401;29;90069;-31
2022/10/22 05:56:13;;;;;;;15.48;11.40;;;12.60;99.90;;;;;;4826096;29;88666;-29
2022/10/22 05:58:38;;;;;;;18.65;11.93;;;12.60;99.90;;;;;;4824121;29;89668;-28
2022/10/22 06:01:11;;;;;;;13.80;10.52;;;12.60;99.90;;;;;;4823677;29;89089;-31
2022/10/22 06:03:37;;;;;;;14.25;10.02;;;12.70;99.90;;;;;;4824143;29;89815;-30
2022/10/22 06:06:14;;;;;;;15.40;11.02;;;12.70;99.90;;;;;;4825065;29;89864;-29
2022/10/22 06:08:40;;;;;;;13.63;10.95;;;12.70;99.90;;;;;;4822100;29;89203;-29
2022/10/22 06:11:06;;;;;;;11.63;9.27;;;12.70;99.90;;;;;;4824614;29;89341;-30
2022/10/22 06:13:31;;;;;;;14.15;11.88;;;12.70;99.90;;;;;;4825031;29;90433;-31
2022/10/22 06:15:57;;;;;;;14.77;10.60;;;12.70;99.90;;;;;;4824542;29;90348;-30
2022/10/22 06:18:23;;;;;;;14.50;11.55;;;12.70;99.90;;;;;;4824880;29;90834;-27
2022/10/22 06:20:48;;;;;;;17.65;11.82;;;12.80;99.90;;;;;;4825580;29;89525;-29
2022/10/22 06:23:14;;;;;;;17.17;10.57;;;12.80;99.90;;;;;;4824674;29;90567;-28
2022/10/22 06:25:40;;;;;;;15.13;10.52;;;12.80;99.90;;;;;;4824707;29;89761;-33
2022/10/22 06:28:05;;;;;;;14.55;10.48;;;12.80;99.90;;;;;;4824868;29;90829;-29
2022/10/22 06:30:31;;;;;;;13.15;11.05;;;12.80;99.90;;;;;;4824724;29;89267;-29
2022/10/22 06:32:56;;;;;;;16.02;10.35;;;12.80;99.90;;;;;;4807185;29;91530;-28
2022/10/22 06:35:22;;;;;;;13.48;9.75;;;12.80;99.90;;;;;;4824795;29;90306;-28
2022/10/22 06:37:47;;;;;;;17.50;11.70;;;12.80;99.90;;;;;;4825346;29;89399;-27
2022/10/22 06:40:13;;;;;;;13.10;10.35;;;12.80;99.90;;;;;;4824183;29;89951;-29
2022/10/22 06:42:39;;;;;;;13.10;11.55;;;12.90;99.90;;;;;;4823452;29;88865;-29
2022/10/22 06:45:05;;;;;;;17.38;10.52;;;12.90;99.90;;;;;;4823518;29;90708;-29
2022/10/22 06:47:32;;;;;;;14.18;10.68;;;12.90;99.90;;;;;;4824343;29;89494;-31
2022/10/22 06:49:57;;;;;;;14.27;9.65;;;13.00;99.90;;;;;;4824481;29;90625;-29
2022/10/22 06:52:23;;;;;;;15.52;9.82;;;13.00;99.90;;;;;;4825204;29;90215;-28
2022/10/22 06:54:49;;;;;;;17.00;11.25;;;13.00;99.90;;;;;;4824442;29;89841;-30
2022/10/22 06:57:14;;;;;;;15.82;10.18;;;13.00;99.90;;;;;;4820441;29;89427;-27
2022/10/22 06:59:40;;;;;;;13.75;10.13;;;13.00;99.90;;;;;;4824105;29;88673;-29
2022/10/22 07:02:05;;;;;;;12.55;10.98;;;13.00;99.90;;;;;;4824781;29;90408;-27
2022/10/22 07:04:31;;;;;;;14.23;10.25;;;13.10;99.90;;;;;;4821801;29;90585;-30
2022/10/22 07:06:56;;;;;;;18.80;10.50;;;13.10;99.90;;;;;;4824076;29;90910;-30
2022/10/22 07:09:22;;;;;;;11.75;10.63;;;13.20;99.90;;;;;;4820378;29;88375;-29
2022/10/22 07:11:47;;;;;;;14.18;10.35;;;13.20;99.90;;;;;;4823693;29;89799;-28
2022/10/22 07:14:13;;;;;;;15.35;10.82;;;13.20;99.90;;;;;;4812090;29;89824;-28
2022/10/22 07:16:41;;;;;;;13.60;10.52;;;13.30;99.90;;;;;;4826041;29;89187;-30
2022/10/22 07:19:07;;;;;;;14.00;10.45;;;13.30;99.90;;;;;;4818685;29;89505;-28
2022/10/22 07:21:33;;;;;;;15.68;9.65;;;13.30;99.90;;;;;;4824915;29;90461;-31
2022/10/22 07:23:59;;;;;;;15.55;10.35;;;13.40;99.90;;;;;;4825149;29;90088;-31
2022/10/22 07:26:27;;;;;;;18.05;9.77;;;13.50;99.90;;;;;;4818330;29;90711;-29
2022/10/22 07:28:53;;;;;;;16.17;10.27;;;13.50;99.90;;;;;;4825965;29;89533;-31
2022/10/22 07:31:18;;;;;;;17.33;10.52;;;13.60;99.90;;;;;;4825163;29;90317;-32
2022/10/22 07:33:44;;;;;;;13.75;9.75;;;13.60;99.90;;;;;;4809436;29;88575;-27
2022/10/22 07:36:16;;;;;;;9.93;8.68;;;13.70;99.90;;;;;;4827671;29;89640;-29
2022/10/22 07:38:43;;;;;;;12.35;10.05;;;13.70;99.90;;;;;;4827735;29;89436;-27
2022/10/22 07:41:09;;;;;;;19.80;9.93;;;13.80;99.90;;;;;;4826688;29;90422;-29
2022/10/22 07:43:35;;;;;;;13.50;9.57;;;13.90;99.90;;;;;;4827333;29;89562;-29
2022/10/22 07:46:01;;;;;;;12.95;9.57;;;13.90;99.90;;;;;;4826113;29;90732;-31
2022/10/22 07:48:27;;;;;;;10.90;8.68;;;14.00;99.90;;;;;;4826727;29;89328;-32
2022/10/22 07:50:54;;;;;;;13.70;9.82;;;14.10;99.90;;;;;;4827043;29;91070;-29
2022/10/22 07:53:20;;;;;;;11.88;8.52;;;14.30;99.90;;;;;;4826912;29;90835;-29
2022/10/22 07:55:49;;;;;;;15.05;9.57;;;14.40;99.90;;;;;;4827188;29;90972;-30
2022/10/22 07:58:17;;;;;;;15.05;9.02;;;14.50;99.90;;;;;;4827772;29;88784;-29
2022/10/22 08:00:43;;;;;;;11.40;8.38;;;14.50;99.90;;;;;;4827684;29;90204;-28
2022/10/22 08:03:10;;;;;;;9.07;7.78;;;14.50;99.90;;;;;;4826878;29;89674;-32
2022/10/22 08:05:38;;;;;;;10.60;7.57;;;14.60;99.90;;;;;;4826493;29;89447;-30
2022/10/22 08:08:04;;;;;;;13.13;7.63;;;14.70;99.90;;;;;;4827574;29;90350;-27
2022/10/22 08:10:30;;;;;;;12.00;7.60;;;14.70;99.90;;;;;;4827712;29;89453;-30
2022/10/22 08:12:56;;;;;;;12.50;7.38;;;14.80;99.90;;;;;;4826039;29;89663;-30
2022/10/22 08:15:24;;;;;;;9.75;7.50;;;14.80;99.90;;;;;;4827338;29;89647;-31
2022/10/22 08:17:50;;;;;;;10.53;7.90;;;14.80;99.90;;;;;;4827348;29;89794;-29
2022/10/22 08:20:16;;;;;;;13.15;6.88;;;14.80;99.90;;;;;;4827255;29;90478;-28
2022/10/22 08:22:41;;;;;;;11.45;7.65;;;14.80;99.90;;;;;;4827108;29;89591;-31
2022/10/22 08:25:07;;;;;;;8.68;6.40;;;14.80;99.90;;;;;;4826852;29;90038;-29
2022/10/22 08:27:33;;;;;;;15.93;7.28;;;14.80;99.90;;;;;;4826587;29;89465;-28
2022/10/22 08:29:58;;;;;;;7.93;7.15;;;14.80;99.90;;;;;;4827044;29;92092;-27
2022/10/22 08:32:24;;;;;;;11.88;7.15;;;14.80;99.90;;;;;;4825938;29;89944;-31
2022/10/22 08:34:50;;;;;;;10.05;6.55;;;14.90;99.90;;;;;;4827089;29;89668;-30
2022/10/22 08:37:16;;;;;;;11.05;7.18;;;14.90;99.90;;;;;;4827088;29;88228;-31
2022/10/22 08:39:43;;;;;;;12.38;6.43;;;14.90;99.90;;;;;;4825964;29;90148;-32
2022/10/22 08:42:29;;;;;;;12.43;6.93;;;14.90;99.90;;;;;;4826466;29;90386;-29
2022/10/22 08:45:16;;;;;;;21.40;6.65;;;14.90;99.90;;;;;;4814230;29;91794;-31
2022/10/22 08:48:00;;;;;;;12.30;6.80;;;14.90;99.90;;;;;;4826091;29;90392;-28
2022/10/22 08:50:33;;;;;;;15.48;6.00;;;14.90;99.90;;;;;;4826997;29;90348;-31
2022/10/22 08:53:02;;;;;;;9.70;7.53;;;14.90;99.90;;;;;;4825723;29;89685;-29
2022/10/22 08:55:29;;;;;;;13.80;7.72;;;15.00;99.90;;;;;;4826046;29;89046;-30
2022/10/22 08:58:34;;;;;;;8.48;6.55;;;15.10;99.90;;;;;;4827142;29;88401;-30
2022/10/22 09:01:11;;;;;;;17.58;7.03;;;15.20;99.90;;;;;;4768776;29;90573;-31
2022/10/22 09:03:50;;;;;;;13.57;7.95;;;15.30;99.90;;;;;;4809836;29;90120;-30
2022/10/22 09:06:24;;;;;;;9.68;6.28;;;15.30;99.90;;;;;;4825949;29;89913;-29
2022/10/22 09:08:52;;;;;;;14.27;8.20;;;15.40;99.90;;;;;;4825933;29;89139;-32
2022/10/22 09:11:27;;;;;;;13.20;6.63;;;15.50;99.90;;;;;;4827177;29;90165;-33
2022/10/22 09:13:56;;;;;;;9.88;6.57;;;15.50;99.90;;;;;;4825655;29;89754;-31
2022/10/22 09:16:26;;;;;;;11.80;6.32;;;15.50;99.90;;;;;;4825926;29;89041;-29
2022/10/22 09:19:06;;;;;;;9.55;6.25;;;15.60;99.90;;;;;;4826213;29;89458;-29
2022/10/22 09:21:32;;;;;;;12.07;6.45;;;15.60;99.90;;;;;;4826148;29;90105;-31
2022/10/22 09:24:36;;;;;;;10.63;7.00;;;15.70;99.90;;;;;;4825390;29;89560;-31
2022/10/22 09:27:14;;;;;;;10.85;7.28;;;15.70;99.90;;;;;;4826496;29;89383;-30
2022/10/22 09:29:40;;;;;;;9.13;5.07;;;15.70;99.90;;;;;;4826295;29;89741;-32
2022/10/22 09:32:06;;;;;;;11.25;7.82;;;15.80;99.90;;;;;;4825245;29;90571;-28
2022/10/22 09:34:32;;;;;;;7.57;5.20;;;15.80;99.90;;;;;;4825684;29;91009;-28
2022/10/22 09:37:06;;;;;;;8.70;6.40;;;15.90;99.90;;;;;;4825941;29;90395;-29
2022/10/22 09:39:43;;;;;;;10.00;5.75;;;15.90;99.90;;;;;;4826470;29;88505;-30
2022/10/22 09:42:13;;;;;;;11.32;6.88;;;16.00;99.90;;;;;;4826402;29;89726;-29
2022/10/22 09:44:38;;;;;;;8.38;5.55;;;16.00;99.90;;;;;;4826461;29;89786;-31
2022/10/22 09:47:25;;;;;;;10.07;6.18;;;16.10;99.90;;;;;;4825574;29;89479;-30
2022/10/22 09:50:26;;;;;;;11.25;5.13;;;16.10;99.90;;;;;;4815073;29;89506;-28
2022/10/22 09:53:18;;;;;;;5.78;4.00;;;16.10;99.90;;;;;;4824973;29;90456;-30
2022/10/22 09:55:48;;;;;;;10.85;6.32;;;16.10;99.90;;;;;;4818725;29;89718;-29
2022/10/22 09:58:16;;;;;;;9.18;5.35;;;16.10;99.90;;;;;;4826424;29;89289;-28
2022/10/22 10:00:44;;;;;;;11.05;5.43;;;16.10;99.90;;;;;;4825780;29;89662;-29
2022/10/22 10:03:19;;;;;;;9.25;5.03;;;16.00;99.90;;;;;;4825548;29;93747;-29
2022/10/22 10:05:48;;;;;;;7.25;5.03;;;16.10;99.90;;;;;;4825351;29;88993;-31
2022/10/22 10:08:16;;;;;;;9.23;5.15;;;16.00;99.90;;;;;;4823039;29;89124;-27
2022/10/22 10:10:51;;;;;;;8.55;4.95;;;16.00;99.90;;;;;;4823667;29;87887;-29
2022/10/22 10:13:24;;;;;;;9.50;5.63;;;16.00;99.90;;;;;;4821646;29;91519;-29
2022/10/22 10:16:07;;;;;;;10.68;5.30;;;16.00;99.90;;;;;;4820273;29;89837;-30
2022/10/22 10:19:08;;;;;;;8.27;5.03;;;15.90;99.90;;;;;;4823031;29;89945;-31
2022/10/22 10:22:17;;;;;;;10.85;6.07;;;15.90;99.90;;;;;;4814050;29;88451;-31
2022/10/22 10:25:06;;;;;;;10.13;4.45;;;15.90;99.90;;;;;;4819286;29;90124;-32
2022/10/22 10:27:39;;;;;;;9.68;4.53;;;15.90;99.90;;;;;;4822759;29;90574;-30
2022/10/22 10:30:16;;;;;;;10.38;5.70;;;15.80;99.90;;;;;;4823293;29;90194;-30
2022/10/22 10:33:03;;;;;;;7.63;5.00;;;15.80;99.90;;;;;;4822674;29;89040;-30
2022/10/22 10:35:55;;;;;;;9.02;5.57;;;15.80;99.90;;;;;;4812900;29;89757;-31
2022/10/22 10:38:59;;;;;;;12.73;6.03;;;15.80;99.90;;;;;;4822014;29;90571;-29
2022/10/22 10:41:32;;;;;;;10.40;6.05;;;15.80;99.90;;;;;;4826850;29;89484;-34
2022/10/22 10:44:42;;;;;;;9.82;5.53;;;15.80;99.90;;;;;;4825839;29;87612;-31
2022/10/22 10:47:26;;;;;;;6.82;6.10;;;15.70;99.90;;;;;;4768630;29;90077;-31
2022/10/22 10:49:59;;;;;;;10.63;5.57;;;15.70;99.90;;;;;;4824973;29;89569;-29
2022/10/22 10:52:49;;;;;;;6.75;5.30;;;15.80;99.90;;;;;;4826346;29;89757;-30
2022/10/22 10:55:52;;;;;;;10.80;6.07;;;15.80;99.90;;;;;;4826568;29;89366;-30
2022/10/22 10:58:42;;;;;;;14.60;5.90;;;15.80;99.90;;;;;;4825801;29;90455;-30
2022/10/22 11:01:13;;;;;;;8.45;5.65;;;15.90;99.90;;;;;;4826636;29;89484;-30
2022/10/22 11:04:05;;;;;;;15.52;6.38;;;16.00;99.90;;;;;;4826389;29;89229;-29
2022/10/22 11:06:33;;;;;;;15.07;6.32;;;16.10;99.90;;;;;;4826741;29;88460;-27
2022/10/22 11:09:05;;;;;;;9.20;5.60;;;16.10;99.90;;;;;;4824983;29;88708;-32
2022/10/22 11:11:38;;;;;;;9.45;6.65;;;16.20;99.90;;;;;;4823941;29;89542;-29
2022/10/22 11:14:33;;;;;;;10.23;5.38;;;16.10;99.90;;;;;;4825366;29;89561;-30
2022/10/22 11:17:12;;;;;;;7.03;5.47;;;16.10;99.90;;;;;;4808126;29;90147;-27
2022/10/22 11:20:12;;;;;;;7.22;5.95;;;16.20;99.90;;;;;;4824923;29;90087;-29
2022/10/22 11:22:43;;;;;;;8.18;5.55;;;16.20;99.90;;;;;;4824878;29;90716;-30
2022/10/22 11:25:15;;;;;;;13.30;6.35;;;16.20;99.90;;;;;;4825549;29;89216;-30
2022/10/22 11:27:55;;;;;;;15.00;5.60;;;16.20;99.90;;;;;;4815322;29;89464;-32
2022/10/22 11:30:24;;;;;;;8.50;6.50;;;16.20;99.90;;;;;;4825221;29;90368;-32
2022/10/22 11:32:57;;;;;;;13.65;6.10;;;16.20;99.90;;;;;;4825263;29;90745;-29
2022/10/22 11:35:32;;;;;;;11.93;6.57;;;16.20;99.90;;;;;;4825169;29;89696;-28
2022/10/22 11:37:58;;;;;;;9.23;5.90;;;16.10;99.90;;;;;;4825630;29;88926;-27
2022/10/22 11:40:42;;;;;;;6.13;5.38;;;16.10;99.90;;;;;;4826201;29;90404;-30
2022/10/22 11:43:11;;;;;;;7.53;5.90;;;16.00;99.90;;;;;;4825738;29;89927;-28
2022/10/22 11:45:41;;;;;;;9.02;6.38;;;16.00;99.90;;;;;;4825649;29;89626;-31
2022/10/22 11:48:10;;;;;;;14.55;6.35;;;15.90;99.90;;;;;;4824233;29;90172;-29
2022/10/22 11:50:55;;;;;;;6.93;6.25;;;15.90;99.90;;;;;;4825726;29;90051;-29
2022/10/22 11:53:36;;;;;;;11.50;7.03;;;15.90;99.90;;;;;;4824721;29;90251;-28
2022/10/22 11:56:11;;;;;;;7.95;7.05;;;15.80;99.90;;;;;;4819494;29;89896;-28
2022/10/22 11:58:41;;;;;;;9.18;7.07;;;15.80;99.90;;;;;;4824102;29;88226;-31
2022/10/22 12:01:07;;;;;;;11.52;6.78;;;15.80;99.90;;;;;;4824553;29;88668;-31
2022/10/22 12:03:33;;;;;;;7.97;6.82;;;15.80;99.90;;;;;;4824493;29;89524;-30
2022/10/22 12:06:15;;;;;;;8.18;6.70;;;15.80;99.90;;;;;;4821876;29;89462;-28
2022/10/22 12:08:55;;;;;;;14.82;7.13;;;15.80;99.90;;;;;;4820412;29;89760;-30
2022/10/22 12:11:59;;;;;;;14.20;7.10;;;15.80;99.90;;;;;;4825393;29;91776;-32
2022/10/22 12:14:31;;;;;;;8.35;6.22;;;15.90;99.90;;;;;;4801622;29;90598;-31
2022/10/22 12:17:11;;;;;;;8.80;6.95;;;15.90;99.90;;;;;;4825008;29;90217;-29
2022/10/22 12:19:46;;;;;;;8.32;7.03;;;16.00;99.90;;;;;;4825374;29;89471;-33
2022/10/22 12:22:15;;;;;;;8.82;7.10;;;16.00;99.90;;;;;;4825166;29;89392;-30
2022/10/22 12:24:45;;;;;;;11.10;7.40;;;16.10;99.90;;;;;;4825214;29;89765;-31
2022/10/22 12:27:21;;;;;;;9.48;6.05;;;16.10;99.90;;;;;;4825413;29;88788;-32
2022/10/22 12:29:47;;;;;;;7.63;6.88;;;16.20;99.90;;;;;;4824537;29;88523;-31
2022/10/22 12:32:15;;;;;;;8.43;6.80;;;16.30;99.90;;;;;;4824727;29;90938;-33
2022/10/22 12:34:48;;;;;;;14.65;6.80;;;16.40;99.90;;;;;;4824560;29;89599;-30
2022/10/22 12:37:16;;;;;;;9.50;7.90;;;16.40;99.90;;;;;;4807672;29;89908;-29
2022/10/22 12:39:41;;;;;;;8.75;6.43;;;16.40;99.90;;;;;;4824440;29;89232;-34
2022/10/22 12:42:13;;;;;;;9.85;6.20;;;16.40;99.90;;;;;;4824577;29;89699;-32
2022/10/22 12:44:38;;;;;;;7.20;5.78;;;16.40;99.90;;;;;;4824562;29;89259;-32
2022/10/22 12:47:06;;;;;;;7.15;5.97;;;16.40;99.90;;;;;;4824502;29;91012;-31
2022/10/22 12:49:39;;;;;;;22.80;6.35;;;16.40;99.90;;;;;;4824305;29;89593;-31
2022/10/22 12:52:11;;;;;;;7.65;5.50;;;16.30;99.90;;;;;;4824418;29;91426;-28
2022/10/22 12:54:38;;;;;;;11.98;6.30;;;16.30;99.90;;;;;;4824226;29;89762;-32